createdAt,value
2022-11-12T00:00:49.639Z,3.75
2022-11-12T00:03:16.129Z,3.75
2022-11-12T00:05:42.632Z,3.77
2022-11-12T00:08:09.070Z,3.78
2022-11-12T00:14:03.663Z,3.83
2022-11-12T00:16:30.171Z,3.86
2022-11-12T00:18:56.605Z,3.88
2022-11-12T00:21:23.114Z,3.87
2022-11-12T00:23:49.740Z,3.87
2022-11-12T00:26:16.192Z,3.85
2022-11-12T00:28:42.647Z,3.85
2022-11-12T00:31:10.016Z,3.88
2022-11-12T00:33:39.521Z,3.91
2022-11-12T00:36:06.373Z,3.95
2022-11-12T00:38:33.090Z,3.98
2022-11-12T00:41:00.076Z,4.01
2022-11-12T00:43:26.619Z,4.06
2022-11-12T00:45:53.059Z,4.07
2022-11-12T00:48:19.513Z,4.08
2022-11-12T00:50:45.928Z,4.09
2022-11-12T00:53:12.407Z,4.10
2022-11-12T00:55:38.867Z,4.11
2022-11-12T00:58:05.297Z,4.11
2022-11-12T01:00:31.760Z,4.11
2022-11-12T01:02:58.222Z,4.12
2022-11-12T01:05:24.723Z,4.10
2022-11-12T01:07:55.783Z,4.04
2022-11-12T01:10:22.685Z,3.94
2022-11-12T01:12:49.195Z,3.87
2022-11-12T01:15:15.714Z,3.85
2022-11-12T01:17:42.199Z,3.86
2022-11-12T01:20:08.788Z,3.88
2022-11-12T01:22:35.329Z,3.87
2022-11-12T01:25:01.830Z,3.85
2022-11-12T01:27:28.315Z,3.84
2022-11-12T01:29:54.812Z,3.84
2022-11-12T01:32:21.325Z,3.82
2022-11-12T01:34:48.325Z,3.81
2022-11-12T01:37:14.810Z,3.79
2022-11-12T01:39:41.272Z,3.78
2022-11-12T01:42:07.766Z,3.76
2022-11-12T01:44:34.980Z,3.75
2022-11-12T01:47:06.010Z,3.71
2022-11-12T01:49:52.595Z,3.69
2022-11-12T01:52:21.739Z,3.69
2022-11-12T01:58:17.299Z,3.66
2022-11-12T02:00:44.009Z,3.65
2022-11-12T02:03:15.617Z,3.62
2022-11-12T02:05:42.285Z,3.56
2022-11-12T02:08:11.100Z,3.52
2022-11-12T02:10:38.627Z,3.52
2022-11-12T02:13:23.873Z,3.51
2022-11-12T02:19:13.458Z,3.49
2022-11-12T02:21:40.007Z,3.46
2022-11-12T02:24:26.732Z,3.44
2022-11-12T02:26:53.910Z,3.42
2022-11-12T02:29:20.506Z,3.39
2022-11-12T02:31:47.006Z,3.39
2022-11-12T02:34:13.450Z,3.35
2022-11-12T02:36:39.942Z,3.33
2022-11-12T02:39:06.440Z,3.29
2022-11-12T02:41:32.862Z,3.27
2022-11-12T02:43:59.293Z,3.26
2022-11-12T02:46:25.760Z,3.23
2022-11-12T02:48:52.208Z,3.17
2022-11-12T02:51:18.679Z,3.07
2022-11-12T02:53:45.126Z,3.01
2022-11-12T02:56:11.585Z,3.01
2022-11-12T02:58:38.023Z,3.03
2022-11-12T03:01:04.588Z,3.07
2022-11-12T03:03:31.515Z,3.09
2022-11-12T03:05:59.281Z,3.12
2022-11-12T03:08:26.153Z,3.13
2022-11-12T03:10:52.913Z,3.16
2022-11-12T03:13:19.609Z,3.17
2022-11-12T03:15:46.158Z,3.17
2022-11-12T03:18:12.622Z,3.18
2022-11-12T03:20:39.290Z,3.17
2022-11-12T03:23:06.678Z,3.17
2022-11-12T03:25:33.124Z,3.21
2022-11-12T03:28:00.234Z,3.21
2022-11-12T03:30:27.325Z,3.21
2022-11-12T03:32:53.807Z,3.23
2022-11-12T03:35:20.252Z,3.23
2022-11-12T03:37:46.803Z,3.22
2022-11-12T03:40:13.252Z,3.21
2022-11-12T03:42:44.239Z,3.22
2022-11-12T03:45:10.716Z,3.21
2022-11-12T03:47:40.185Z,3.20
2022-11-12T03:50:07.191Z,3.23
2022-11-12T03:52:33.621Z,3.23
2022-11-12T03:55:00.009Z,3.25
2022-11-12T03:57:27.797Z,3.26
2022-11-12T03:59:54.253Z,3.25
2022-11-12T04:02:20.653Z,3.27
2022-11-12T04:05:05.969Z,3.28
2022-11-12T04:07:51.226Z,3.31
2022-11-12T04:10:17.729Z,3.31
2022-11-12T04:13:02.926Z,3.31
2022-11-12T04:15:29.377Z,3.29
2022-11-12T04:18:14.575Z,3.28
2022-11-12T04:20:59.697Z,3.25
2022-11-12T04:23:26.172Z,3.22
2022-11-12T04:26:11.364Z,3.20
2022-11-12T04:28:37.812Z,3.17
2022-11-12T04:31:04.303Z,3.14
2022-11-12T04:36:58.441Z,3.14
2022-11-12T04:39:25.023Z,3.13
2022-11-12T04:42:10.223Z,3.13
2022-11-12T04:48:05.353Z,3.11
2022-11-12T04:50:31.892Z,3.11
2022-11-12T04:52:58.342Z,3.13
2022-11-12T04:55:24.810Z,3.14
2022-11-12T04:57:52.763Z,3.13
2022-11-12T05:00:22.528Z,3.14
2022-11-12T05:02:51.993Z,3.12
2022-11-12T05:05:18.425Z,3.11
2022-11-12T05:07:44.867Z,3.09
2022-11-12T05:10:11.318Z,3.06
2022-11-12T05:12:37.808Z,3.06
2022-11-12T05:15:04.480Z,3.03
2022-11-12T05:17:30.932Z,2.99
2022-11-12T05:19:57.380Z,2.93
2022-11-12T05:22:42.782Z,2.88
2022-11-12T05:25:10.351Z,2.86
2022-11-12T05:27:36.853Z,2.85
2022-11-12T05:30:03.663Z,2.80
2022-11-12T05:32:30.186Z,2.75
2022-11-12T05:34:56.629Z,2.70
2022-11-12T05:37:23.076Z,2.65
2022-11-12T05:39:49.619Z,2.61
2022-11-12T05:42:16.119Z,2.59
2022-11-12T05:44:42.590Z,2.57
2022-11-12T05:47:09.084Z,2.58
2022-11-12T05:49:35.535Z,2.57
2022-11-12T05:52:01.969Z,2.58
2022-11-12T05:54:28.538Z,2.58
2022-11-12T05:56:54.949Z,2.59
2022-11-12T05:59:22.289Z,2.59
2022-11-12T06:01:48.832Z,2.58
2022-11-12T06:04:15.606Z,2.56
2022-11-12T06:06:42.214Z,2.52
2022-11-12T06:09:08.818Z,2.53
2022-11-12T06:11:35.317Z,2.54
2022-11-12T06:14:01.790Z,2.55
2022-11-12T06:16:28.264Z,2.57
2022-11-12T06:18:54.674Z,2.56
2022-11-12T06:21:24.055Z,2.53
2022-11-12T06:23:51.622Z,2.54
2022-11-12T06:26:18.241Z,2.55
2022-11-12T06:28:44.928Z,2.55
2022-11-12T06:31:11.490Z,2.57
2022-11-12T06:33:38.049Z,2.56
2022-11-12T06:36:15.516Z,2.55
2022-11-12T06:38:42.063Z,2.51
2022-11-12T06:41:09.096Z,2.44
2022-11-12T06:43:35.868Z,2.38
2022-11-12T06:46:02.486Z,2.38
2022-11-12T06:48:29.222Z,2.37
2022-11-12T06:50:56.153Z,2.37
2022-11-12T06:53:22.711Z,2.37
2022-11-12T06:55:49.139Z,2.38
2022-11-12T06:58:15.623Z,2.43
2022-11-12T07:00:42.276Z,2.48
2022-11-12T07:03:08.937Z,2.55
2022-11-12T07:05:36.991Z,2.59
2022-11-12T07:08:04.021Z,2.70
2022-11-12T07:10:30.489Z,2.79
2022-11-12T07:12:56.906Z,2.87
2022-11-12T07:15:23.342Z,2.96
2022-11-12T07:17:49.903Z,3.01
2022-11-12T07:20:16.479Z,3.10
2022-11-12T07:22:43.060Z,3.19
2022-11-12T07:25:09.662Z,3.28
2022-11-12T07:27:36.116Z,3.34
2022-11-12T07:30:02.639Z,3.40
2022-11-12T07:32:29.723Z,3.45
2022-11-12T07:34:56.200Z,3.51
2022-11-12T07:37:22.688Z,3.62
2022-11-12T07:39:49.113Z,3.74
2022-11-12T07:42:15.556Z,3.87
2022-11-12T07:44:42.165Z,4.03
2022-11-12T07:47:08.708Z,4.15
2022-11-12T07:49:35.217Z,4.24
2022-11-12T07:52:01.690Z,4.36
2022-11-12T07:54:28.152Z,4.46
2022-11-12T07:56:54.605Z,4.58
2022-11-12T07:59:21.064Z,4.94
2022-11-12T08:01:47.598Z,5.59
2022-11-12T08:04:14.207Z,6.32
2022-11-12T08:06:40.838Z,7.11
2022-11-12T08:09:07.833Z,7.97
2022-11-12T08:11:34.387Z,9.01
2022-11-12T08:14:02.153Z,10.10
2022-11-12T08:16:28.692Z,11.14
2022-11-12T08:18:55.206Z,11.93
2022-11-12T08:21:21.821Z,12.54
2022-11-12T08:23:48.588Z,13.11
2022-11-12T08:26:16.088Z,13.74
2022-11-12T08:28:56.889Z,14.34
2022-11-12T08:31:23.607Z,15.01
2022-11-12T08:33:51.900Z,15.52
2022-11-12T08:36:18.525Z,16.09
2022-11-12T08:38:45.041Z,16.64
2022-11-12T08:41:12.161Z,17.11
2022-11-12T08:43:38.884Z,17.57
2022-11-12T08:46:05.410Z,18.03
2022-11-12T08:48:32.237Z,18.55
2022-11-12T08:50:58.772Z,18.94
2022-11-12T08:53:25.345Z,18.73
2022-11-12T08:55:55.423Z,18.16
2022-11-12T08:58:21.983Z,17.59
2022-11-12T09:00:49.927Z,17.02
2022-11-12T09:03:17.241Z,16.44
2022-11-12T09:05:44.451Z,15.91
2022-11-12T09:08:12.389Z,15.42
2022-11-12T09:10:38.856Z,14.95
2022-11-12T09:13:05.286Z,14.45
2022-11-12T09:15:39.119Z,13.92
2022-11-12T09:18:11.019Z,13.45
2022-11-12T09:20:37.570Z,13.10
2022-11-12T09:23:08.102Z,12.78
2022-11-12T09:25:34.843Z,12.51
2022-11-12T09:28:30.859Z,12.27
2022-11-12T09:30:59.632Z,12.04
2022-11-12T09:33:32.728Z,11.89
2022-11-12T09:36:02.955Z,11.74
2022-11-12T09:38:29.948Z,11.62
2022-11-12T09:41:06.369Z,11.50
2022-11-12T09:43:33.810Z,11.41
2022-11-12T09:48:51.545Z,11.30
2022-11-12T09:51:33.999Z,11.27
2022-11-12T09:54:20.788Z,11.22
2022-11-12T09:56:48.400Z,11.17
2022-11-12T09:59:14.871Z,11.17
2022-11-12T10:02:01.636Z,11.15
2022-11-12T10:04:34.283Z,11.16
2022-11-12T10:07:00.759Z,11.13
2022-11-12T10:09:29.129Z,11.11
2022-11-12T10:12:34.242Z,11.09
2022-11-12T10:15:31.623Z,11.05
2022-11-12T10:18:01.269Z,10.98
2022-11-12T10:20:38.480Z,10.94
2022-11-12T10:23:16.266Z,10.96
2022-11-12T10:26:05.779Z,10.96
2022-11-12T10:28:39.229Z,11.06
2022-11-12T10:31:15.843Z,11.17
2022-11-12T10:33:42.355Z,11.30
2022-11-12T10:36:12.024Z,11.45
2022-11-12T10:42:33.843Z,11.77
2022-11-12T10:45:14.970Z,11.96
2022-11-12T10:47:44.575Z,12.09
2022-11-12T10:50:30.212Z,12.24
2022-11-12T10:52:57.955Z,12.43
2022-11-12T10:55:31.797Z,12.62
2022-11-12T10:58:16.595Z,12.70
2022-11-12T11:01:05.151Z,12.81
2022-11-12T11:03:36.665Z,12.90
2022-11-12T11:06:15.423Z,12.97
2022-11-12T11:08:46.187Z,13.04
2022-11-12T11:11:26.879Z,13.08
2022-11-12T11:13:57.124Z,13.15
2022-11-12T11:16:24.503Z,13.21
2022-11-12T11:19:00.866Z,13.25
2022-11-12T11:21:46.210Z,13.31
2022-11-12T11:24:16.251Z,13.42
2022-11-12T11:26:49.908Z,13.50
2022-11-12T11:29:35.122Z,13.60
2022-11-12T11:32:20.240Z,13.82
2022-11-12T11:34:52.886Z,13.83
2022-11-12T11:37:28.567Z,13.88
2022-11-12T11:40:13.764Z,13.92
2022-11-12T11:42:40.255Z,13.98
2022-11-12T11:45:12.481Z,13.95
2022-11-12T11:48:00.426Z,13.90
2022-11-12T11:50:28.347Z,13.79
2022-11-12T11:53:04.049Z,13.71
2022-11-12T11:55:50.827Z,13.56
2022-11-12T11:58:36.139Z,13.57
2022-11-12T12:01:02.556Z,13.46
2022-11-12T12:03:37.574Z,13.41
2022-11-12T12:06:07.575Z,13.45
2022-11-12T12:08:40.207Z,13.44
2022-11-12T12:11:10.355Z,13.38
2022-11-12T12:13:36.809Z,13.31
2022-11-12T12:16:41.901Z,13.26
2022-11-12T12:19:31.668Z,13.23
2022-11-12T12:21:58.375Z,13.21
2022-11-12T12:24:48.160Z,13.20
2022-11-12T12:27:14.629Z,13.20
2022-11-12T12:29:43.335Z,13.22
2022-11-12T12:32:12.848Z,13.25
2022-11-12T12:34:46.499Z,13.26
2022-11-12T12:37:12.934Z,13.25
2022-11-12T12:39:47.970Z,13.28
2022-11-12T12:42:29.374Z,13.34
2022-11-12T12:45:00.222Z,13.32
2022-11-12T12:47:28.643Z,13.29
2022-11-12T12:49:55.100Z,13.24
2022-11-12T12:52:21.549Z,13.22
2022-11-12T12:54:48.045Z,13.22
2022-11-12T12:57:31.323Z,13.26
2022-11-12T13:00:16.527Z,13.24
2022-11-12T13:02:43.121Z,13.18
2022-11-12T13:05:29.997Z,13.18
2022-11-12T13:07:57.712Z,13.23
2022-11-12T13:10:39.360Z,13.15
2022-11-12T13:13:06.656Z,13.13
2022-11-12T13:15:53.915Z,13.14
2022-11-12T13:18:38.764Z,13.18
2022-11-12T13:21:11.997Z,13.18
2022-11-12T13:24:06.864Z,13.16
2022-11-12T13:26:39.472Z,13.16
2022-11-12T13:29:24.557Z,13.12
2022-11-12T13:32:10.915Z,13.08
2022-11-12T13:34:37.420Z,13.15
2022-11-12T13:37:04.507Z,13.14
2022-11-12T13:39:32.497Z,13.11
2022-11-12T13:42:17.531Z,13.07
2022-11-12T13:44:43.948Z,12.98
2022-11-12T13:47:12.283Z,12.93
2022-11-12T13:49:38.875Z,12.93
2022-11-12T13:55:28.073Z,12.88
2022-11-12T13:57:54.965Z,12.84
2022-11-12T14:00:21.542Z,12.83
2022-11-12T14:02:58.280Z,12.82
2022-11-12T14:05:31.900Z,12.78
2022-11-12T14:08:16.987Z,12.78
2022-11-12T14:11:02.279Z,12.77
2022-11-12T14:13:47.561Z,12.75
2022-11-12T14:16:26.207Z,12.71
2022-11-12T14:18:55.818Z,12.66
2022-11-12T14:21:22.401Z,12.61
2022-11-12T14:23:49.266Z,12.56
2022-11-12T14:26:33.351Z,12.50
2022-11-12T14:28:59.821Z,12.44
2022-11-12T14:31:26.357Z,12.40
2022-11-12T14:33:52.825Z,12.41
2022-11-12T14:36:19.275Z,12.38
2022-11-12T14:38:55.564Z,12.30
2022-11-12T14:41:22.856Z,12.18
2022-11-12T14:44:07.495Z,12.10
2022-11-12T14:46:39.991Z,12.04
2022-11-12T14:49:07.029Z,11.93
2022-11-12T14:51:36.893Z,11.82
2022-11-12T14:54:05.039Z,11.65
2022-11-12T14:56:35.812Z,11.35
2022-11-12T14:59:02.476Z,11.10
2022-11-12T15:02:14.553Z,10.90
2022-11-12T15:04:18.866Z,10.70
2022-11-12T15:06:51.607Z,10.47
2022-11-12T15:09:43.304Z,10.22
2022-11-12T15:12:11.406Z,9.90
2022-11-12T15:14:37.919Z,9.64
2022-11-12T15:17:06.097Z,9.37
2022-11-12T15:19:32.559Z,9.16
2022-11-12T15:22:01.240Z,8.96
2022-11-12T15:24:31.686Z,8.79
2022-11-12T15:26:58.968Z,8.68
2022-11-12T15:29:32.470Z,8.60
2022-11-12T15:32:00.052Z,8.51
2022-11-12T15:34:32.660Z,8.41
2022-11-12T15:37:00.415Z,8.27
2022-11-12T15:39:27.101Z,8.20
2022-11-12T15:42:03.708Z,8.14
2022-11-12T15:44:31.427Z,8.03
2022-11-12T15:46:58.944Z,7.93
2022-11-12T15:49:25.480Z,7.77
2022-11-12T15:51:51.935Z,7.65
2022-11-12T15:54:18.423Z,7.53
2022-11-12T15:56:44.978Z,7.39
2022-11-12T15:59:14.889Z,7.25
2022-11-12T16:01:41.372Z,7.11
2022-11-12T16:04:08.192Z,6.98
2022-11-12T16:06:34.707Z,6.91
2022-11-12T16:09:01.297Z,6.87
2022-11-12T16:11:36.986Z,6.85
2022-11-12T16:14:07.879Z,6.79
2022-11-12T16:16:34.406Z,6.75
2022-11-12T16:19:00.877Z,6.64
2022-11-12T16:21:27.387Z,6.58
2022-11-12T16:23:53.904Z,6.56
2022-11-12T16:26:23.318Z,6.56
2022-11-12T16:28:49.898Z,6.54
2022-11-12T16:31:16.401Z,6.53
2022-11-12T16:33:42.859Z,6.49
2022-11-12T16:36:15.849Z,6.41
2022-11-12T16:38:42.529Z,6.38
2022-11-12T16:41:12.319Z,6.30
2022-11-12T16:43:39.019Z,6.13
2022-11-12T16:46:28.750Z,5.99
2022-11-12T16:48:55.225Z,5.87
2022-11-12T16:51:21.947Z,5.76
2022-11-12T16:53:48.553Z,5.69
2022-11-12T16:56:19.036Z,5.67
2022-11-12T16:58:45.592Z,5.64
2022-11-12T17:01:28.076Z,5.64
2022-11-12T17:03:55.744Z,5.52
2022-11-12T17:06:22.588Z,5.45
2022-11-12T17:08:49.591Z,5.45
2022-11-12T17:11:16.222Z,5.46
2022-11-12T17:13:42.949Z,5.46
2022-11-12T17:16:09.534Z,5.43
2022-11-12T17:18:36.104Z,5.38
2022-11-12T17:21:12.988Z,5.33
2022-11-12T17:23:39.607Z,5.30
2022-11-12T17:26:06.848Z,5.24
2022-11-12T17:28:33.404Z,5.12
2022-11-12T17:31:07.360Z,4.99
2022-11-12T17:33:37.632Z,4.93
2022-11-12T17:36:04.628Z,4.92
2022-11-12T17:38:31.167Z,4.89
2022-11-12T17:40:57.909Z,4.83
2022-11-12T17:43:24.707Z,4.79
2022-11-12T17:45:51.824Z,4.77
2022-11-12T17:48:18.374Z,4.76
2022-11-12T17:50:45.082Z,4.75
2022-11-12T17:53:29.579Z,4.72
2022-11-12T17:55:56.726Z,4.76
2022-11-12T17:58:23.332Z,4.75
2022-11-12T18:00:51.857Z,4.76
2022-11-12T18:03:18.744Z,4.69
2022-11-12T18:05:45.193Z,4.64
2022-11-12T18:08:11.708Z,4.61
2022-11-12T18:10:38.154Z,4.58
2022-11-12T18:13:04.652Z,4.52
2022-11-12T18:15:31.156Z,4.49
2022-11-12T18:21:19.189Z,4.39
2022-11-12T18:23:45.681Z,4.36
2022-11-12T18:26:15.123Z,4.34
2022-11-12T18:28:42.475Z,4.30
2022-11-12T18:31:08.987Z,4.26
2022-11-12T18:33:37.639Z,4.20
2022-11-12T18:36:08.206Z,4.08
2022-11-12T18:38:35.036Z,3.96
2022-11-12T18:41:02.319Z,3.86
2022-11-12T18:43:29.171Z,3.79
2022-11-12T18:45:59.336Z,3.79
2022-11-12T18:48:29.377Z,3.79
2022-11-12T18:50:59.444Z,3.66
2022-11-12T18:53:26.689Z,3.60
2022-11-12T18:55:53.885Z,3.56
2022-11-12T18:58:20.364Z,3.46
2022-11-12T19:00:46.962Z,3.37
2022-11-12T19:03:13.519Z,3.30
2022-11-12T19:05:40.167Z,3.28
2022-11-12T19:08:06.696Z,3.24
2022-11-12T19:10:33.245Z,3.25
2022-11-12T19:13:03.897Z,3.26
2022-11-12T19:15:34.307Z,3.31
2022-11-12T19:18:01.334Z,3.33
2022-11-12T19:20:28.215Z,3.36
2022-11-12T19:22:54.767Z,3.36
2022-11-12T19:25:22.048Z,3.33
2022-11-12T19:27:48.691Z,3.32
2022-11-12T19:30:15.396Z,3.27
2022-11-12T19:32:42.018Z,3.14
2022-11-12T19:35:08.762Z,3.07
2022-11-12T19:37:35.221Z,3.00
2022-11-12T19:40:01.701Z,2.98
2022-11-12T19:42:28.232Z,2.89
2022-11-12T19:44:54.716Z,2.88
2022-11-12T19:47:21.159Z,2.87
2022-11-12T19:49:47.587Z,2.89
2022-11-12T19:52:14.035Z,2.88
2022-11-12T19:54:40.505Z,2.89
2022-11-12T19:57:07.000Z,2.88
2022-11-12T19:59:34.901Z,2.90
2022-11-12T20:02:01.326Z,2.90
2022-11-12T20:04:27.785Z,2.88
2022-11-12T20:06:54.409Z,2.87
2022-11-12T20:09:20.938Z,2.85
2022-11-12T20:11:47.427Z,2.82
2022-11-12T20:14:13.911Z,2.82
2022-11-12T20:16:40.358Z,2.78
2022-11-12T20:19:06.795Z,2.71
2022-11-12T20:21:33.663Z,2.68
2022-11-12T20:24:00.617Z,2.65
2022-11-12T20:26:27.320Z,2.62
2022-11-12T20:28:54.027Z,2.63
2022-11-12T20:31:20.917Z,2.58
2022-11-12T20:33:48.876Z,2.52
2022-11-12T20:36:16.331Z,2.46
2022-11-12T20:38:43.157Z,2.28
2022-11-12T20:41:13.617Z,2.19
2022-11-12T20:43:40.101Z,2.15
2022-11-12T20:46:06.543Z,2.15
2022-11-12T20:48:35.230Z,2.15
2022-11-12T20:51:28.662Z,2.17
2022-11-12T20:53:59.332Z,2.21
2022-11-12T20:56:27.353Z,2.26
2022-11-12T20:58:53.856Z,2.24
2022-11-12T21:01:20.927Z,2.26
2022-11-12T21:03:47.511Z,2.29
2022-11-12T21:06:15.187Z,2.28
2022-11-12T21:08:41.819Z,2.25
2022-11-12T21:11:09.065Z,2.25
2022-11-12T21:13:35.759Z,2.25
2022-11-12T21:16:02.306Z,2.24
2022-11-12T21:18:29.156Z,2.25
2022-11-12T21:21:14.910Z,2.23
2022-11-12T21:23:41.966Z,2.21
2022-11-12T21:26:18.480Z,2.20
2022-11-12T21:28:45.728Z,2.18
2022-11-12T21:31:15.928Z,2.13
2022-11-12T21:33:42.501Z,2.08
2022-11-12T21:36:14.837Z,2.06
2022-11-12T21:38:42.843Z,2.07
2022-11-12T21:41:10.405Z,2.08
2022-11-12T21:43:37.470Z,2.09
2022-11-12T21:46:06.935Z,2.10
2022-11-12T21:48:33.384Z,2.07
2022-11-12T21:51:03.876Z,2.00
2022-11-12T21:53:30.344Z,1.91
2022-11-12T21:56:04.215Z,1.87
2022-11-12T21:58:31.031Z,1.87
2022-11-12T22:01:06.056Z,1.79
2022-11-12T22:03:32.599Z,1.73
2022-11-12T22:05:59.601Z,1.73
2022-11-12T22:08:26.354Z,1.75
2022-11-12T22:10:53.089Z,1.77
2022-11-12T22:13:26.845Z,1.74
2022-11-12T22:15:54.093Z,1.72
2022-11-12T22:21:42.851Z,1.70
2022-11-12T22:24:09.394Z,1.74
2022-11-12T22:26:35.947Z,1.72
2022-11-12T22:29:02.439Z,1.67
2022-11-12T22:31:29.540Z,1.68
2022-11-12T22:33:57.135Z,1.63
2022-11-12T22:36:24.155Z,1.60
2022-11-12T22:38:51.194Z,1.60
2022-11-12T22:41:18.476Z,1.60
2022-11-12T22:43:48.280Z,1.59
2022-11-12T22:46:24.612Z,1.57
2022-11-12T22:48:51.192Z,1.60
2022-11-12T22:51:21.663Z,1.60
2022-11-12T22:53:48.205Z,1.62
2022-11-12T22:56:15.274Z,1.63
2022-11-12T22:58:42.314Z,1.66
2022-11-12T23:01:11.091Z,1.64
2022-11-12T23:03:37.691Z,1.62
2022-11-12T23:06:04.863Z,1.54
2022-11-12T23:08:31.553Z,1.40
2022-11-12T23:11:01.579Z,1.37
2022-11-12T23:13:28.125Z,1.36
2022-11-12T23:15:54.719Z,1.33
2022-11-12T23:18:21.253Z,1.37
2022-11-12T23:20:47.691Z,1.38
2022-11-12T23:23:14.187Z,1.43
2022-11-12T23:25:40.666Z,1.46
2022-11-12T23:28:07.803Z,1.50
2022-11-12T23:30:35.109Z,1.53
2022-11-12T23:33:01.777Z,1.57
2022-11-12T23:35:28.819Z,1.54
2022-11-12T23:37:55.415Z,1.55
2022-11-12T23:40:21.970Z,1.54
2022-11-12T23:42:48.401Z,1.52
2022-11-12T23:45:14.904Z,1.53
2022-11-12T23:47:41.365Z,1.52
2022-11-12T23:50:08.168Z,1.55
2022-11-12T23:52:35.392Z,1.58
2022-11-12T23:58:30.430Z,1.50
